sensor_id;sensor_type;location;lat;lon;timestamp;P1;durP1;ratioP1;P2;durP2;ratioP2
76155;SDS011;64906;51.290;7.348;2023-08-20T00:02:07;36.53;;;19.38;;
76155;SDS011;64906;51.290;7.348;2023-08-20T00:04:35;34.88;;;18.73;;
76155;SDS011;64906;51.290;7.348;2023-08-20T00:07:02;38.63;;;19.17;;
76155;SDS011;64906;51.290;7.348;2023-08-20T00:09:27;39.97;;;18.90;;
76155;SDS011;64906;51.290;7.348;2023-08-20T00:11:53;35.38;;;19.05;;
76155;SDS011;64906;51.290;7.348;2023-08-20T00:14:18;34.07;;;17.83;;
76155;SDS011;64906;51.290;7.348;2023-08-20T00:16:44;35.80;;;19.03;;
76155;SDS011;64906;51.290;7.348;2023-08-20T00:19:09;34.97;;;18.63;;
76155;SDS011;64906;51.290;7.348;2023-08-20T00:21:41;31.75;;;17.65;;
76155;SDS011;64906;51.290;7.348;2023-08-20T00:24:09;36.25;;;18.58;;
76155;SDS011;64906;51.290;7.348;2023-08-20T00:26:35;37.20;;;18.77;;
76155;SDS011;64906;51.290;7.348;2023-08-20T00:29:00;36.20;;;18.63;;
76155;SDS011;64906;51.290;7.348;2023-08-20T00:31:26;34.45;;;18.13;;
76155;SDS011;64906;51.290;7.348;2023-08-20T00:33:51;32.67;;;17.77;;
76155;SDS011;64906;51.290;7.348;2023-08-20T00:36:17;37.13;;;18.93;;
76155;SDS011;64906;51.290;7.348;2023-08-20T00:38:42;32.33;;;18.20;;
76155;SDS011;64906;51.290;7.348;2023-08-20T00:41:07;32.40;;;17.00;;
76155;SDS011;64906;51.290;7.348;2023-08-20T00:43:33;33.50;;;17.40;;
76155;SDS011;64906;51.290;7.348;2023-08-20T00:45:58;30.95;;;17.33;;
76155;SDS011;64906;51.290;7.348;2023-08-20T00:48:24;31.42;;;17.73;;
76155;SDS011;64906;51.290;7.348;2023-08-20T00:50:50;33.97;;;17.85;;
76155;SDS011;64906;51.290;7.348;2023-08-20T00:53:16;33.80;;;18.30;;
76155;SDS011;64906;51.290;7.348;2023-08-20T00:55:42;31.58;;;17.65;;
76155;SDS011;64906;51.290;7.348;2023-08-20T00:58:08;32.58;;;17.25;;
76155;SDS011;64906;51.290;7.348;2023-08-20T01:00:34;29.92;;;17.05;;
76155;SDS011;64906;51.290;7.348;2023-08-20T01:02:59;28.73;;;16.47;;
76155;SDS011;64906;51.290;7.348;2023-08-20T01:05:24;30.50;;;16.93;;
76155;SDS011;64906;51.290;7.348;2023-08-20T01:10:41;31.23;;;16.55;;
76155;SDS011;64906;51.290;7.348;2023-08-20T01:13:14;31.80;;;16.55;;
76155;SDS011;64906;51.290;7.348;2023-08-20T01:15:40;29.77;;;16.70;;
76155;SDS011;64906;51.290;7.348;2023-08-20T01:18:05;28.87;;;17.27;;
76155;SDS011;64906;51.290;7.348;2023-08-20T01:20:33;29.65;;;16.98;;
76155;SDS011;64906;51.290;7.348;2023-08-20T01:28:33;30.50;;;16.38;;
76155;SDS011;64906;51.290;7.348;2023-08-20T01:31:00;31.50;;;16.23;;
76155;SDS011;64906;51.290;7.348;2023-08-20T01:33:26;29.00;;;15.88;;
76155;SDS011;64906;51.290;7.348;2023-08-20T01:35:52;27.13;;;16.00;;
76155;SDS011;64906;51.290;7.348;2023-08-20T01:38:18;32.72;;;16.77;;
76155;SDS011;64906;51.290;7.348;2023-08-20T01:40:44;30.17;;;17.47;;
76155;SDS011;64906;51.290;7.348;2023-08-20T01:43:09;27.80;;;16.08;;
76155;SDS011;64906;51.290;7.348;2023-08-20T01:45:35;28.92;;;16.73;;
76155;SDS011;64906;51.290;7.348;2023-08-20T01:48:00;25.60;;;15.20;;
76155;SDS011;64906;51.290;7.348;2023-08-20T01:50:25;27.25;;;16.13;;
76155;SDS011;64906;51.290;7.348;2023-08-20T01:52:51;29.05;;;15.43;;
76155;SDS011;64906;51.290;7.348;2023-08-20T01:55:16;27.10;;;16.03;;
76155;SDS011;64906;51.290;7.348;2023-08-20T01:57:41;26.73;;;15.27;;
76155;SDS011;64906;51.290;7.348;2023-08-20T02:00:07;27.98;;;16.48;;
76155;SDS011;64906;51.290;7.348;2023-08-20T02:02:33;28.50;;;15.00;;
76155;SDS011;64906;51.290;7.348;2023-08-20T02:04:59;28.00;;;15.55;;
76155;SDS011;64906;51.290;7.348;2023-08-20T02:07:24;27.77;;;15.43;;
76155;SDS011;64906;51.290;7.348;2023-08-20T02:09:50;30.00;;;16.53;;
76155;SDS011;64906;51.290;7.348;2023-08-20T02:12:15;28.50;;;15.93;;
76155;SDS011;64906;51.290;7.348;2023-08-20T02:14:40;25.67;;;14.90;;
76155;SDS011;64906;51.290;7.348;2023-08-20T02:17:06;29.95;;;15.55;;
76155;SDS011;64906;51.290;7.348;2023-08-20T02:19:32;27.13;;;16.33;;
76155;SDS011;64906;51.290;7.348;2023-08-20T02:21:57;24.80;;;14.75;;
76155;SDS011;64906;51.290;7.348;2023-08-20T02:24:22;26.33;;;15.23;;
76155;SDS011;64906;51.290;7.348;2023-08-20T02:26:47;27.98;;;14.93;;
76155;SDS011;64906;51.290;7.348;2023-08-20T02:29:13;25.63;;;14.60;;
76155;SDS011;64906;51.290;7.348;2023-08-20T02:31:38;24.23;;;14.70;;
76155;SDS011;64906;51.290;7.348;2023-08-20T02:34:03;23.90;;;14.37;;
76155;SDS011;64906;51.290;7.348;2023-08-20T02:36:29;27.02;;;14.80;;
76155;SDS011;64906;51.290;7.348;2023-08-20T02:38:54;23.67;;;14.37;;
76155;SDS011;64906;51.290;7.348;2023-08-20T02:41:19;25.73;;;15.10;;
76155;SDS011;64906;51.290;7.348;2023-08-20T02:43:45;25.90;;;14.85;;
76155;SDS011;64906;51.290;7.348;2023-08-20T02:46:10;24.25;;;14.05;;
76155;SDS011;64906;51.290;7.348;2023-08-20T02:48:35;25.63;;;14.83;;
76155;SDS011;64906;51.290;7.348;2023-08-20T02:51:01;25.90;;;14.60;;
76155;SDS011;64906;51.290;7.348;2023-08-20T02:53:26;26.50;;;15.00;;
76155;SDS011;64906;51.290;7.348;2023-08-20T02:55:51;26.20;;;14.83;;
76155;SDS011;64906;51.290;7.348;2023-08-20T02:58:17;23.03;;;13.83;;
76155;SDS011;64906;51.290;7.348;2023-08-20T03:00:42;25.40;;;14.60;;
76155;SDS011;64906;51.290;7.348;2023-08-20T03:03:09;27.27;;;14.93;;
76155;SDS011;64906;51.290;7.348;2023-08-20T03:05:35;22.73;;;13.18;;
76155;SDS011;64906;51.290;7.348;2023-08-20T03:08:01;22.05;;;13.65;;
76155;SDS011;64906;51.290;7.348;2023-08-20T03:10:27;26.40;;;14.15;;
76155;SDS011;64906;51.290;7.348;2023-08-20T03:12:52;25.30;;;13.88;;
76155;SDS011;64906;51.290;7.348;2023-08-20T03:15:18;23.63;;;13.70;;
76155;SDS011;64906;51.290;7.348;2023-08-20T03:17:43;23.17;;;13.20;;
76155;SDS011;64906;51.290;7.348;2023-08-20T03:20:08;21.50;;;13.17;;
76155;SDS011;64906;51.290;7.348;2023-08-20T03:22:35;25.27;;;14.23;;
76155;SDS011;64906;51.290;7.348;2023-08-20T03:25:02;24.67;;;14.27;;
76155;SDS011;64906;51.290;7.348;2023-08-20T03:27:28;22.17;;;13.40;;
76155;SDS011;64906;51.290;7.348;2023-08-20T03:29:53;24.83;;;13.77;;
76155;SDS011;64906;51.290;7.348;2023-08-20T03:32:18;25.30;;;13.82;;
76155;SDS011;64906;51.290;7.348;2023-08-20T03:34:44;21.53;;;13.37;;
76155;SDS011;64906;51.290;7.348;2023-08-20T03:37:09;24.60;;;13.93;;
76155;SDS011;64906;51.290;7.348;2023-08-20T03:39:34;25.93;;;14.00;;
76155;SDS011;64906;51.290;7.348;2023-08-20T03:42:00;23.70;;;13.93;;
76155;SDS011;64906;51.290;7.348;2023-08-20T03:44:25;25.37;;;13.53;;
76155;SDS011;64906;51.290;7.348;2023-08-20T03:46:51;23.80;;;13.65;;
76155;SDS011;64906;51.290;7.348;2023-08-20T03:49:16;22.83;;;13.20;;
76155;SDS011;64906;51.290;7.348;2023-08-20T03:51:41;22.47;;;13.13;;
76155;SDS011;64906;51.290;7.348;2023-08-20T03:54:07;20.27;;;12.70;;
76155;SDS011;64906;51.290;7.348;2023-08-20T03:56:33;24.77;;;14.10;;
76155;SDS011;64906;51.290;7.348;2023-08-20T03:58:58;22.58;;;12.80;;
76155;SDS011;64906;51.290;7.348;2023-08-20T04:01:24;22.77;;;13.40;;
76155;SDS011;64906;51.290;7.348;2023-08-20T04:03:49;22.13;;;13.30;;
76155;SDS011;64906;51.290;7.348;2023-08-20T04:06:15;20.98;;;13.45;;
76155;SDS011;64906;51.290;7.348;2023-08-20T04:08:40;22.75;;;13.07;;
76155;SDS011;64906;51.290;7.348;2023-08-20T04:11:06;24.83;;;14.07;;
76155;SDS011;64906;51.290;7.348;2023-08-20T04:13:31;20.52;;;12.50;;
76155;SDS011;64906;51.290;7.348;2023-08-20T04:15:57;20.75;;;13.25;;
76155;SDS011;64906;51.290;7.348;2023-08-20T04:18:22;20.90;;;12.35;;
76155;SDS011;64906;51.290;7.348;2023-08-20T04:20:51;22.33;;;12.82;;
76155;SDS011;64906;51.290;7.348;2023-08-20T04:23:17;21.42;;;12.88;;
76155;SDS011;64906;51.290;7.348;2023-08-20T04:25:43;21.38;;;12.32;;
76155;SDS011;64906;51.290;7.348;2023-08-20T04:28:09;22.50;;;12.80;;
76155;SDS011;64906;51.290;7.348;2023-08-20T04:30:38;21.17;;;12.20;;
76155;SDS011;64906;51.290;7.348;2023-08-20T04:33:03;21.37;;;12.97;;
76155;SDS011;64906;51.290;7.348;2023-08-20T04:35:29;24.60;;;13.02;;
76155;SDS011;64906;51.290;7.348;2023-08-20T04:37:54;20.33;;;12.82;;
76155;SDS011;64906;51.290;7.348;2023-08-20T04:40:19;22.53;;;12.53;;
76155;SDS011;64906;51.290;7.348;2023-08-20T04:42:45;23.83;;;13.00;;
76155;SDS011;64906;51.290;7.348;2023-08-20T04:45:10;21.47;;;12.10;;
76155;SDS011;64906;51.290;7.348;2023-08-20T04:47:36;24.55;;;13.60;;
76155;SDS011;64906;51.290;7.348;2023-08-20T04:50:02;23.52;;;12.63;;
76155;SDS011;64906;51.290;7.348;2023-08-20T04:52:27;18.08;;;11.30;;
76155;SDS011;64906;51.290;7.348;2023-08-20T04:54:52;21.15;;;12.32;;
76155;SDS011;64906;51.290;7.348;2023-08-20T04:57:18;20.20;;;11.90;;
76155;SDS011;64906;51.290;7.348;2023-08-20T04:59:43;23.00;;;12.97;;
76155;SDS011;64906;51.290;7.348;2023-08-20T05:02:10;20.88;;;11.68;;
76155;SDS011;64906;51.290;7.348;2023-08-20T05:04:36;18.27;;;11.27;;
76155;SDS011;64906;51.290;7.348;2023-08-20T05:07:01;22.20;;;12.37;;
76155;SDS011;64906;51.290;7.348;2023-08-20T05:09:28;18.52;;;11.77;;
76155;SDS011;64906;51.290;7.348;2023-08-20T05:11:53;19.60;;;11.30;;
76155;SDS011;64906;51.290;7.348;2023-08-20T05:14:18;20.13;;;11.53;;
76155;SDS011;64906;51.290;7.348;2023-08-20T05:16:44;21.65;;;12.25;;
76155;SDS011;64906;51.290;7.348;2023-08-20T05:19:09;19.37;;;12.00;;
76155;SDS011;64906;51.290;7.348;2023-08-20T05:21:35;19.27;;;12.87;;
76155;SDS011;64906;51.290;7.348;2023-08-20T05:24:00;19.33;;;11.23;;
76155;SDS011;64906;51.290;7.348;2023-08-20T05:26:25;20.03;;;12.20;;
76155;SDS011;64906;51.290;7.348;2023-08-20T05:28:51;22.53;;;12.73;;
76155;SDS011;64906;51.290;7.348;2023-08-20T05:31:16;20.23;;;11.03;;
76155;SDS011;64906;51.290;7.348;2023-08-20T05:33:41;20.07;;;12.23;;
76155;SDS011;64906;51.290;7.348;2023-08-20T05:36:06;21.50;;;11.87;;
76155;SDS011;64906;51.290;7.348;2023-08-20T05:38:32;20.30;;;12.47;;
76155;SDS011;64906;51.290;7.348;2023-08-20T05:40:57;17.63;;;11.10;;
76155;SDS011;64906;51.290;7.348;2023-08-20T05:43:22;20.00;;;11.43;;
76155;SDS011;64906;51.290;7.348;2023-08-20T05:45:47;19.60;;;12.13;;
76155;SDS011;64906;51.290;7.348;2023-08-20T05:48:13;18.98;;;11.68;;
76155;SDS011;64906;51.290;7.348;2023-08-20T05:50:38;18.53;;;11.23;;
76155;SDS011;64906;51.290;7.348;2023-08-20T05:53:03;20.10;;;11.50;;
76155;SDS011;64906;51.290;7.348;2023-08-20T05:55:29;18.70;;;11.90;;
76155;SDS011;64906;51.290;7.348;2023-08-20T05:57:54;18.23;;;11.00;;
76155;SDS011;64906;51.290;7.348;2023-08-20T06:00:19;17.67;;;10.87;;
76155;SDS011;64906;51.290;7.348;2023-08-20T06:02:45;17.50;;;10.85;;
76155;SDS011;64906;51.290;7.348;2023-08-20T06:05:10;18.77;;;11.23;;
76155;SDS011;64906;51.290;7.348;2023-08-20T06:07:35;19.05;;;11.15;;
76155;SDS011;64906;51.290;7.348;2023-08-20T06:10:01;18.60;;;10.77;;
76155;SDS011;64906;51.290;7.348;2023-08-20T06:12:26;18.45;;;10.80;;
76155;SDS011;64906;51.290;7.348;2023-08-20T06:14:51;16.33;;;10.27;;
76155;SDS011;64906;51.290;7.348;2023-08-20T06:17:17;18.70;;;11.00;;
76155;SDS011;64906;51.290;7.348;2023-08-20T06:19:42;17.38;;;11.48;;
76155;SDS011;64906;51.290;7.348;2023-08-20T06:22:07;18.53;;;11.17;;
76155;SDS011;64906;51.290;7.348;2023-08-20T06:24:33;17.40;;;10.57;;
76155;SDS011;64906;51.290;7.348;2023-08-20T06:26:58;17.60;;;11.00;;
76155;SDS011;64906;51.290;7.348;2023-08-20T06:29:24;18.05;;;11.52;;
76155;SDS011;64906;51.290;7.348;2023-08-20T06:31:49;17.13;;;10.43;;
76155;SDS011;64906;51.290;7.348;2023-08-20T06:34:15;17.10;;;10.35;;
76155;SDS011;64906;51.290;7.348;2023-08-20T06:36:40;18.33;;;10.38;;
76155;SDS011;64906;51.290;7.348;2023-08-20T06:39:06;17.65;;;10.85;;
76155;SDS011;64906;51.290;7.348;2023-08-20T06:41:31;17.67;;;10.73;;
76155;SDS011;64906;51.290;7.348;2023-08-20T06:43:56;16.63;;;10.63;;
76155;SDS011;64906;51.290;7.348;2023-08-20T06:46:22;16.42;;;10.35;;
76155;SDS011;64906;51.290;7.348;2023-08-20T06:48:47;16.87;;;10.00;;
76155;SDS011;64906;51.290;7.348;2023-08-20T06:51:13;16.07;;;9.87;;
76155;SDS011;64906;51.290;7.348;2023-08-20T06:53:39;17.95;;;10.82;;
76155;SDS011;64906;51.290;7.348;2023-08-20T06:56:05;16.17;;;10.63;;
76155;SDS011;64906;51.290;7.348;2023-08-20T06:58:32;16.80;;;10.18;;
76155;SDS011;64906;51.290;7.348;2023-08-20T07:00:57;16.20;;;10.03;;
76155;SDS011;64906;51.290;7.348;2023-08-20T07:03:31;17.13;;;9.82;;
76155;SDS011;64906;51.290;7.348;2023-08-20T07:05:57;16.58;;;9.95;;
76155;SDS011;64906;51.290;7.348;2023-08-20T07:08:23;16.23;;;9.93;;
76155;SDS011;64906;51.290;7.348;2023-08-20T07:10:48;16.97;;;10.70;;
76155;SDS011;64906;51.290;7.348;2023-08-20T07:13:13;16.30;;;10.73;;
76155;SDS011;64906;51.290;7.348;2023-08-20T07:15:39;16.60;;;10.40;;
76155;SDS011;64906;51.290;7.348;2023-08-20T07:18:04;15.90;;;10.07;;
76155;SDS011;64906;51.290;7.348;2023-08-20T07:20:30;17.38;;;10.25;;
76155;SDS011;64906;51.290;7.348;2023-08-20T07:22:55;16.97;;;10.10;;
76155;SDS011;64906;51.290;7.348;2023-08-20T07:25:20;16.87;;;9.83;;
76155;SDS011;64906;51.290;7.348;2023-08-20T07:27:46;15.73;;;9.43;;
76155;SDS011;64906;51.290;7.348;2023-08-20T07:30:11;14.33;;;9.90;;
76155;SDS011;64906;51.290;7.348;2023-08-20T07:32:37;16.70;;;10.13;;
76155;SDS011;64906;51.290;7.348;2023-08-20T07:35:02;13.97;;;9.83;;
76155;SDS011;64906;51.290;7.348;2023-08-20T07:37:28;15.20;;;9.93;;
76155;SDS011;64906;51.290;7.348;2023-08-20T07:39:53;16.43;;;10.37;;
76155;SDS011;64906;51.290;7.348;2023-08-20T07:42:18;14.57;;;9.67;;
76155;SDS011;64906;51.290;7.348;2023-08-20T07:44:44;16.37;;;9.63;;
76155;SDS011;64906;51.290;7.348;2023-08-20T07:47:09;16.48;;;9.75;;
76155;SDS011;64906;51.290;7.348;2023-08-20T07:49:34;14.17;;;9.57;;
76155;SDS011;64906;51.290;7.348;2023-08-20T07:52:00;14.03;;;9.80;;
76155;SDS011;64906;51.290;7.348;2023-08-20T07:54:25;16.73;;;9.88;;
76155;SDS011;64906;51.290;7.348;2023-08-20T07:56:52;15.63;;;9.75;;
76155;SDS011;64906;51.290;7.348;2023-08-20T07:59:17;16.80;;;10.10;;
76155;SDS011;64906;51.290;7.348;2023-08-20T08:01:42;14.90;;;9.17;;
76155;SDS011;64906;51.290;7.348;2023-08-20T08:04:08;15.10;;;9.13;;
76155;SDS011;64906;51.290;7.348;2023-08-20T08:06:33;14.93;;;9.60;;
76155;SDS011;64906;51.290;7.348;2023-08-20T08:09:14;16.07;;;9.57;;
76155;SDS011;64906;51.290;7.348;2023-08-20T08:11:43;13.43;;;9.25;;
76155;SDS011;64906;51.290;7.348;2023-08-20T08:14:09;13.53;;;9.13;;
76155;SDS011;64906;51.290;7.348;2023-08-20T08:16:36;16.20;;;9.30;;
76155;SDS011;64906;51.290;7.348;2023-08-20T08:19:01;15.85;;;9.20;;
76155;SDS011;64906;51.290;7.348;2023-08-20T08:21:27;15.57;;;9.23;;
76155;SDS011;64906;51.290;7.348;2023-08-20T08:23:52;14.43;;;9.30;;
76155;SDS011;64906;51.290;7.348;2023-08-20T08:26:18;15.43;;;9.17;;
76155;SDS011;64906;51.290;7.348;2023-08-20T08:28:43;15.90;;;9.20;;
76155;SDS011;64906;51.290;7.348;2023-08-20T08:31:08;13.57;;;8.80;;
76155;SDS011;64906;51.290;7.348;2023-08-20T08:33:33;14.87;;;9.20;;
76155;SDS011;64906;51.290;7.348;2023-08-20T08:35:59;14.17;;;8.90;;
76155;SDS011;64906;51.290;7.348;2023-08-20T08:38:24;13.95;;;9.13;;
76155;SDS011;64906;51.290;7.348;2023-08-20T08:40:49;14.03;;;9.07;;
76155;SDS011;64906;51.290;7.348;2023-08-20T08:43:15;14.35;;;9.32;;
76155;SDS011;64906;51.290;7.348;2023-08-20T08:45:44;13.38;;;8.82;;
76155;SDS011;64906;51.290;7.348;2023-08-20T08:48:11;13.85;;;8.95;;
76155;SDS011;64906;51.290;7.348;2023-08-20T08:50:36;14.88;;;9.27;;
76155;SDS011;64906;51.290;7.348;2023-08-20T08:53:01;14.20;;;9.20;;
76155;SDS011;64906;51.290;7.348;2023-08-20T08:55:27;14.85;;;8.68;;
76155;SDS011;64906;51.290;7.348;2023-08-20T08:57:53;13.93;;;8.95;;
76155;SDS011;64906;51.290;7.348;2023-08-20T09:00:18;12.67;;;8.63;;
76155;SDS011;64906;51.290;7.348;2023-08-20T09:02:43;13.48;;;8.85;;
76155;SDS011;64906;51.290;7.348;2023-08-20T09:05:09;14.07;;;8.70;;
76155;SDS011;64906;51.290;7.348;2023-08-20T09:07:34;13.10;;;8.77;;
76155;SDS011;64906;51.290;7.348;2023-08-20T09:10:00;12.65;;;8.10;;
76155;SDS011;64906;51.290;7.348;2023-08-20T09:12:25;13.50;;;9.00;;
76155;SDS011;64906;51.290;7.348;2023-08-20T09:14:51;13.82;;;8.95;;
76155;SDS011;64906;51.290;7.348;2023-08-20T09:17:17;13.98;;;8.98;;
76155;SDS011;64906;51.290;7.348;2023-08-20T09:19:44;13.40;;;8.75;;
76155;SDS011;64906;51.290;7.348;2023-08-20T09:22:11;13.00;;;8.85;;
76155;SDS011;64906;51.290;7.348;2023-08-20T09:24:47;14.07;;;8.63;;
76155;SDS011;64906;51.290;7.348;2023-08-20T09:27:17;15.15;;;8.90;;
76155;SDS011;64906;51.290;7.348;2023-08-20T09:29:53;12.73;;;7.78;;
76155;SDS011;64906;51.290;7.348;2023-08-20T09:34:46;13.45;;;8.38;;
76155;SDS011;64906;51.290;7.348;2023-08-20T09:37:13;12.98;;;8.27;;
76155;SDS011;64906;51.290;7.348;2023-08-20T09:39:39;13.30;;;8.40;;
76155;SDS011;64906;51.290;7.348;2023-08-20T09:42:06;13.35;;;8.55;;
76155;SDS011;64906;51.290;7.348;2023-08-20T09:44:35;12.80;;;8.55;;
76155;SDS011;64906;51.290;7.348;2023-08-20T09:47:10;13.18;;;8.63;;
76155;SDS011;64906;51.290;7.348;2023-08-20T09:49:40;12.32;;;7.75;;
76155;SDS011;64906;51.290;7.348;2023-08-20T09:52:31;15.55;;;8.77;;
76155;SDS011;64906;51.290;7.348;2023-08-20T09:55:11;14.25;;;8.38;;
76155;SDS011;64906;51.290;7.348;2023-08-20T09:57:41;12.40;;;8.23;;
76155;SDS011;64906;51.290;7.348;2023-08-20T10:00:07;11.82;;;7.95;;
76155;SDS011;64906;51.290;7.348;2023-08-20T10:02:34;12.75;;;8.18;;
76155;SDS011;64906;51.290;7.348;2023-08-20T10:05:00;12.55;;;7.95;;
76155;SDS011;64906;51.290;7.348;2023-08-20T10:07:30;14.52;;;8.68;;
76155;SDS011;64906;51.290;7.348;2023-08-20T10:09:57;13.30;;;8.02;;
76155;SDS011;64906;51.290;7.348;2023-08-20T10:12:25;12.88;;;8.88;;
76155;SDS011;64906;51.290;7.348;2023-08-20T10:14:52;12.15;;;7.57;;
76155;SDS011;64906;51.290;7.348;2023-08-20T10:17:18;12.68;;;7.97;;
76155;SDS011;64906;51.290;7.348;2023-08-20T10:19:43;12.20;;;8.20;;
76155;SDS011;64906;51.290;7.348;2023-08-20T10:22:08;12.20;;;7.97;;
76155;SDS011;64906;51.290;7.348;2023-08-20T10:24:41;13.23;;;7.95;;
76155;SDS011;64906;51.290;7.348;2023-08-20T10:27:12;12.05;;;7.60;;
76155;SDS011;64906;51.290;7.348;2023-08-20T10:29:38;13.90;;;8.50;;
76155;SDS011;64906;51.290;7.348;2023-08-20T10:32:13;12.70;;;8.13;;
76155;SDS011;64906;51.290;7.348;2023-08-20T10:34:39;12.85;;;8.20;;
76155;SDS011;64906;51.290;7.348;2023-08-20T10:37:14;14.80;;;8.88;;
76155;SDS011;64906;51.290;7.348;2023-08-20T10:39:40;11.73;;;8.32;;
76155;SDS011;64906;51.290;7.348;2023-08-20T10:47:43;13.35;;;7.90;;
76155;SDS011;64906;51.290;7.348;2023-08-20T10:50:15;11.25;;;7.80;;
76155;SDS011;64906;51.290;7.348;2023-08-20T10:52:42;13.38;;;8.23;;
76155;SDS011;64906;51.290;7.348;2023-08-20T10:55:12;13.65;;;8.02;;
76155;SDS011;64906;51.290;7.348;2023-08-20T10:57:38;11.18;;;7.53;;
76155;SDS011;64906;51.290;7.348;2023-08-20T11:00:04;11.60;;;7.47;;
76155;SDS011;64906;51.290;7.348;2023-08-20T11:02:39;11.85;;;7.53;;
76155;SDS011;64906;51.290;7.348;2023-08-20T11:05:16;12.15;;;7.85;;
76155;SDS011;64906;51.290;7.348;2023-08-20T11:07:43;11.70;;;7.65;;
76155;SDS011;64906;51.290;7.348;2023-08-20T11:10:10;10.93;;;7.47;;
76155;SDS011;64906;51.290;7.348;2023-08-20T11:12:38;11.48;;;7.55;;
76155;SDS011;64906;51.290;7.348;2023-08-20T11:15:03;12.23;;;7.40;;
76155;SDS011;64906;51.290;7.348;2023-08-20T11:17:29;11.93;;;7.70;;
76155;SDS011;64906;51.290;7.348;2023-08-20T11:19:55;11.80;;;7.60;;
76155;SDS011;64906;51.290;7.348;2023-08-20T11:22:20;10.27;;;6.90;;
76155;SDS011;64906;51.290;7.348;2023-08-20T11:24:46;11.27;;;7.00;;
76155;SDS011;64906;51.290;7.348;2023-08-20T11:27:11;11.23;;;7.50;;
76155;SDS011;64906;51.290;7.348;2023-08-20T11:29:37;11.77;;;7.72;;
76155;SDS011;64906;51.290;7.348;2023-08-20T11:32:07;10.85;;;6.97;;
76155;SDS011;64906;51.290;7.348;2023-08-20T11:34:34;10.57;;;7.28;;
76155;SDS011;64906;51.290;7.348;2023-08-20T11:37:00;10.73;;;7.13;;
76155;SDS011;64906;51.290;7.348;2023-08-20T11:39:26;13.05;;;7.90;;
76155;SDS011;64906;51.290;7.348;2023-08-20T11:41:54;11.15;;;7.70;;
76155;SDS011;64906;51.290;7.348;2023-08-20T11:44:20;11.63;;;7.20;;
76155;SDS011;64906;51.290;7.348;2023-08-20T11:46:51;12.25;;;7.60;;
76155;SDS011;64906;51.290;7.348;2023-08-20T11:49:16;11.48;;;7.72;;
76155;SDS011;64906;51.290;7.348;2023-08-20T11:51:42;10.10;;;6.80;;
76155;SDS011;64906;51.290;7.348;2023-08-20T11:54:17;12.13;;;7.53;;
76155;SDS011;64906;51.290;7.348;2023-08-20T11:56:47;11.02;;;7.30;;
76155;SDS011;64906;51.290;7.348;2023-08-20T11:59:14;11.63;;;7.38;;
76155;SDS011;64906;51.290;7.348;2023-08-20T12:01:40;11.00;;;7.28;;
76155;SDS011;64906;51.290;7.348;2023-08-20T12:04:06;11.23;;;7.05;;
76155;SDS011;64906;51.290;7.348;2023-08-20T12:06:33;10.85;;;6.78;;
76155;SDS011;64906;51.290;7.348;2023-08-20T12:08:59;10.30;;;7.00;;
76155;SDS011;64906;51.290;7.348;2023-08-20T12:11:26;10.63;;;6.95;;
76155;SDS011;64906;51.290;7.348;2023-08-20T12:13:53;10.88;;;7.22;;
76155;SDS011;64906;51.290;7.348;2023-08-20T12:16:21;10.00;;;6.78;;
76155;SDS011;64906;51.290;7.348;2023-08-20T12:18:47;10.50;;;6.40;;
76155;SDS011;64906;51.290;7.348;2023-08-20T12:21:12;10.40;;;7.13;;
76155;SDS011;64906;51.290;7.348;2023-08-20T12:23:38;10.95;;;7.43;;
76155;SDS011;64906;51.290;7.348;2023-08-20T12:26:03;10.43;;;6.90;;
76155;SDS011;64906;51.290;7.348;2023-08-20T12:28:28;10.00;;;7.17;;
76155;SDS011;64906;51.290;7.348;2023-08-20T12:30:54;10.40;;;7.10;;
76155;SDS011;64906;51.290;7.348;2023-08-20T12:33:19;10.57;;;6.50;;
76155;SDS011;64906;51.290;7.348;2023-08-20T12:35:45;10.60;;;6.68;;
76155;SDS011;64906;51.290;7.348;2023-08-20T12:38:11;9.60;;;6.47;;
76155;SDS011;64906;51.290;7.348;2023-08-20T12:40:37;10.63;;;6.85;;
76155;SDS011;64906;51.290;7.348;2023-08-20T12:43:02;10.45;;;7.20;;
76155;SDS011;64906;51.290;7.348;2023-08-20T12:45:28;10.35;;;6.70;;
76155;SDS011;64906;51.290;7.348;2023-08-20T12:47:53;10.52;;;6.82;;
76155;SDS011;64906;51.290;7.348;2023-08-20T12:50:19;9.98;;;6.18;;
76155;SDS011;64906;51.290;7.348;2023-08-20T12:52:44;9.33;;;6.17;;
76155;SDS011;64906;51.290;7.348;2023-08-20T12:55:09;10.37;;;6.30;;
76155;SDS011;64906;51.290;7.348;2023-08-20T12:57:35;11.43;;;6.78;;
76155;SDS011;64906;51.290;7.348;2023-08-20T13:00:01;8.98;;;6.13;;
76155;SDS011;64906;51.290;7.348;2023-08-20T13:04:57;9.95;;;6.80;;
76155;SDS011;64906;51.290;7.348;2023-08-20T13:07:23;9.52;;;6.65;;
76155;SDS011;64906;51.290;7.348;2023-08-20T13:09:49;9.57;;;6.50;;
76155;SDS011;64906;51.290;7.348;2023-08-20T13:12:14;9.60;;;6.20;;
76155;SDS011;64906;51.290;7.348;2023-08-20T13:14:43;10.27;;;7.07;;
76155;SDS011;64906;51.290;7.348;2023-08-20T13:17:09;9.45;;;6.68;;
76155;SDS011;64906;51.290;7.348;2023-08-20T13:19:35;9.35;;;6.22;;
76155;SDS011;64906;51.290;7.348;2023-08-20T13:22:00;9.82;;;6.40;;
76155;SDS011;64906;51.290;7.348;2023-08-20T13:24:26;10.77;;;6.38;;
76155;SDS011;64906;51.290;7.348;2023-08-20T13:26:51;9.90;;;6.63;;
76155;SDS011;64906;51.290;7.348;2023-08-20T13:29:16;10.30;;;6.72;;
76155;SDS011;64906;51.290;7.348;2023-08-20T13:31:42;10.03;;;6.53;;
76155;SDS011;64906;51.290;7.348;2023-08-20T13:34:07;10.17;;;6.67;;
76155;SDS011;64906;51.290;7.348;2023-08-20T13:36:32;9.97;;;6.60;;
76155;SDS011;64906;51.290;7.348;2023-08-20T13:38:57;9.23;;;6.03;;
76155;SDS011;64906;51.290;7.348;2023-08-20T13:41:23;10.10;;;6.43;;
76155;SDS011;64906;51.290;7.348;2023-08-20T13:43:48;9.07;;;6.10;;
76155;SDS011;64906;51.290;7.348;2023-08-20T13:46:13;9.13;;;6.27;;
76155;SDS011;64906;51.290;7.348;2023-08-20T13:48:39;9.00;;;6.07;;
76155;SDS011;64906;51.290;7.348;2023-08-20T13:51:04;10.17;;;6.57;;
76155;SDS011;64906;51.290;7.348;2023-08-20T13:53:29;10.90;;;6.87;;
76155;SDS011;64906;51.290;7.348;2023-08-20T13:55:54;8.50;;;5.88;;
76155;SDS011;64906;51.290;7.348;2023-08-20T13:58:20;8.23;;;5.88;;
76155;SDS011;64906;51.290;7.348;2023-08-20T14:00:46;9.65;;;6.53;;
76155;SDS011;64906;51.290;7.348;2023-08-20T14:03:11;11.18;;;6.68;;
76155;SDS011;64906;51.290;7.348;2023-08-20T14:05:37;10.27;;;6.57;;
76155;SDS011;64906;51.290;7.348;2023-08-20T14:08:02;9.88;;;6.35;;
76155;SDS011;64906;51.290;7.348;2023-08-20T14:10:28;9.40;;;6.20;;
76155;SDS011;64906;51.290;7.348;2023-08-20T14:12:53;9.87;;;6.40;;
76155;SDS011;64906;51.290;7.348;2023-08-20T14:15:18;10.77;;;6.57;;
76155;SDS011;64906;51.290;7.348;2023-08-20T14:17:44;9.27;;;6.13;;
76155;SDS011;64906;51.290;7.348;2023-08-20T14:20:10;9.27;;;6.20;;
76155;SDS011;64906;51.290;7.348;2023-08-20T14:22:36;9.00;;;6.30;;
76155;SDS011;64906;51.290;7.348;2023-08-20T14:25:02;9.20;;;6.03;;
76155;SDS011;64906;51.290;7.348;2023-08-20T14:27:28;8.52;;;5.55;;
76155;SDS011;64906;51.290;7.348;2023-08-20T14:29:54;9.48;;;6.20;;
76155;SDS011;64906;51.290;7.348;2023-08-20T14:32:19;9.07;;;6.10;;
76155;SDS011;64906;51.290;7.348;2023-08-20T14:34:45;9.63;;;6.50;;
76155;SDS011;64906;51.290;7.348;2023-08-20T14:37:11;9.68;;;6.18;;
76155;SDS011;64906;51.290;7.348;2023-08-20T14:39:38;9.45;;;6.25;;
76155;SDS011;64906;51.290;7.348;2023-08-20T14:42:03;9.60;;;6.00;;